createdAt,value
2022-09-11T00:01:00.284Z,18.10
2022-09-11T00:03:29.989Z,17.99
2022-09-11T00:05:57.998Z,17.96
2022-09-11T00:08:26.993Z,17.88
2022-09-11T00:10:57.022Z,17.83
2022-09-11T00:13:25.028Z,17.82
2022-09-11T00:15:53.436Z,17.90
2022-09-11T00:18:22.324Z,17.79
2022-09-11T00:20:51.008Z,17.74
2022-09-11T00:23:19.536Z,17.80
2022-09-11T00:25:47.893Z,17.81
2022-09-11T00:28:19.790Z,17.72
2022-09-11T00:30:48.503Z,17.75
2022-09-11T00:33:17.111Z,17.75
2022-09-11T00:35:45.092Z,17.72
2022-09-11T00:38:17.264Z,17.67
2022-09-11T00:40:46.520Z,17.52
2022-09-11T00:43:16.597Z,17.50
2022-09-11T00:45:47.164Z,17.58
2022-09-11T00:48:17.966Z,17.62
2022-09-11T00:50:45.794Z,17.53
2022-09-11T00:53:16.022Z,17.50
2022-09-11T00:55:48.204Z,17.42
2022-09-11T00:58:18.085Z,17.38
2022-09-11T01:00:47.918Z,17.46
2022-09-11T01:03:15.723Z,17.47
2022-09-11T01:05:44.468Z,17.35
2022-09-11T01:08:12.951Z,17.31
2022-09-11T01:10:56.336Z,17.21
2022-09-11T01:13:29.005Z,17.15
2022-09-11T01:16:04.279Z,17.06
2022-09-11T01:18:35.794Z,16.95
2022-09-11T01:21:14.959Z,16.98
2022-09-11T01:23:55.051Z,16.98
2022-09-11T01:26:39.762Z,17.00
2022-09-11T01:29:15.945Z,17.05
2022-09-11T01:31:48.413Z,16.96
2022-09-11T01:34:20.812Z,16.95
2022-09-11T01:36:53.711Z,16.87
2022-09-11T01:39:23.395Z,16.83
2022-09-11T01:41:54.162Z,16.80
2022-09-11T01:44:28.776Z,16.96
2022-09-11T01:46:57.002Z,17.11
2022-09-11T01:49:28.589Z,17.24
2022-09-11T01:52:01.592Z,17.28
2022-09-11T01:54:32.930Z,17.45
2022-09-11T01:57:04.670Z,17.52
2022-09-11T01:59:38.625Z,17.54
2022-09-11T02:02:09.483Z,17.61
2022-09-11T02:04:40.947Z,17.58
2022-09-11T02:07:12.677Z,17.56
2022-09-11T02:09:43.303Z,17.53
2022-09-11T02:12:12.837Z,17.40
2022-09-11T02:14:44.207Z,17.25
2022-09-11T02:17:16.936Z,17.24
2022-09-11T02:19:44.794Z,17.37
2022-09-11T02:22:12.622Z,17.57
2022-09-11T02:24:40.368Z,17.51
2022-09-11T02:27:11.534Z,17.51
2022-09-11T02:29:40.130Z,17.61
2022-09-11T02:32:11.145Z,17.68
2022-09-11T02:34:40.382Z,17.72
2022-09-11T02:37:26.646Z,17.77
2022-09-11T02:40:09.143Z,17.79
2022-09-11T02:42:46.209Z,17.78
2022-09-11T02:45:23.410Z,17.83
2022-09-11T02:47:59.645Z,17.87
2022-09-11T02:50:33.807Z,17.88
2022-09-11T02:53:05.752Z,17.86
2022-09-11T02:55:41.568Z,17.70
2022-09-11T02:58:13.109Z,17.69
2022-09-11T03:00:41.351Z,17.62
2022-09-11T03:03:10.988Z,17.58
2022-09-11T03:05:40.261Z,17.62
2022-09-11T03:08:08.624Z,17.67
2022-09-11T03:10:38.522Z,17.63
2022-09-11T03:13:09.986Z,17.59
2022-09-11T03:15:37.729Z,17.60
2022-09-11T03:18:05.720Z,17.62
2022-09-11T03:20:34.928Z,17.69
2022-09-11T03:23:07.900Z,17.73
2022-09-11T03:25:35.631Z,17.77
2022-09-11T03:28:05.118Z,17.97
2022-09-11T03:30:34.962Z,17.92
2022-09-11T03:33:02.812Z,17.88
2022-09-11T03:35:30.496Z,17.90
2022-09-11T03:38:00.378Z,17.89
2022-09-11T03:40:28.340Z,17.80
2022-09-11T03:42:56.097Z,17.87
2022-09-11T03:45:23.961Z,18.07
2022-09-11T03:47:51.730Z,18.09
2022-09-11T03:50:19.518Z,17.77
2022-09-11T03:52:48.134Z,17.67
2022-09-11T03:55:17.553Z,17.70
2022-09-11T03:57:45.444Z,17.78
2022-09-11T04:00:13.623Z,17.89
2022-09-11T04:02:53.818Z,17.90
2022-09-11T04:05:38.040Z,17.97
2022-09-11T04:08:06.883Z,18.06
2022-09-11T04:10:39.057Z,18.09
2022-09-11T04:13:08.326Z,18.11
2022-09-11T04:15:36.249Z,18.08
2022-09-11T04:18:07.045Z,17.93
2022-09-11T04:20:35.654Z,17.97
2022-09-11T04:23:03.449Z,18.04
2022-09-11T04:25:32.363Z,18.04
2022-09-11T04:28:02.546Z,17.96
2022-09-11T04:30:30.338Z,18.13
2022-09-11T04:32:58.970Z,18.03
2022-09-11T04:35:27.097Z,17.97
2022-09-11T04:37:57.756Z,18.04
2022-09-11T04:40:25.657Z,18.08
2022-09-11T04:42:54.076Z,18.08
2022-09-11T04:45:23.890Z,18.14
2022-09-11T04:47:53.222Z,18.00
2022-09-11T04:50:21.908Z,18.01
2022-09-11T04:53:08.314Z,18.00
2022-09-11T04:55:36.452Z,18.22
2022-09-11T04:58:04.192Z,18.37
2022-09-11T05:00:35.220Z,18.28
2022-09-11T05:03:03.041Z,18.25
2022-09-11T05:05:30.815Z,18.08
2022-09-11T05:07:59.053Z,18.03
2022-09-11T05:10:27.219Z,18.26
2022-09-11T05:12:56.213Z,18.49
2022-09-11T05:15:26.028Z,18.52
2022-09-11T05:17:55.201Z,18.25
2022-09-11T05:20:23.092Z,18.32
2022-09-11T05:22:51.540Z,17.99
2022-09-11T05:25:19.434Z,18.13
2022-09-11T05:27:47.969Z,18.09
2022-09-11T05:30:15.932Z,18.34
2022-09-11T05:32:44.209Z,18.29
2022-09-11T05:35:14.052Z,18.17
2022-09-11T05:37:41.780Z,18.13
2022-09-11T05:40:12.472Z,17.96
2022-09-11T05:42:40.678Z,17.99
2022-09-11T05:45:09.447Z,18.16
2022-09-11T05:47:37.840Z,18.39
2022-09-11T05:50:06.014Z,18.47
2022-09-11T05:52:35.713Z,18.56
2022-09-11T05:55:04.121Z,18.61
2022-09-11T05:57:32.912Z,18.57
2022-09-11T06:00:00.752Z,18.56
2022-09-11T06:02:30.980Z,18.48
2022-09-11T06:04:58.770Z,18.64
2022-09-11T06:07:27.009Z,18.65
2022-09-11T06:10:02.307Z,18.57
2022-09-11T06:12:31.658Z,18.74
2022-09-11T06:15:00.124Z,18.61
2022-09-11T06:17:28.313Z,18.51
2022-09-11T06:19:56.172Z,18.35
2022-09-11T06:22:23.926Z,18.62
2022-09-11T06:24:53.875Z,18.55
2022-09-11T06:27:23.000Z,18.38
2022-09-11T06:29:51.533Z,18.40
2022-09-11T06:32:21.273Z,18.57
2022-09-11T06:34:49.155Z,18.60
2022-09-11T06:37:16.967Z,18.29
2022-09-11T06:39:44.826Z,18.22
2022-09-11T06:42:19.251Z,18.52
2022-09-11T06:44:51.353Z,18.51
2022-09-11T06:47:20.714Z,18.45
2022-09-11T06:49:49.536Z,18.39
2022-09-11T06:52:54.014Z,18.71
2022-09-11T06:55:25.133Z,18.68
2022-09-11T06:57:58.656Z,18.51
2022-09-11T07:00:31.103Z,18.47
2022-09-11T07:02:59.110Z,18.52
2022-09-11T07:05:27.372Z,18.48
2022-09-11T07:07:57.079Z,18.64
2022-09-11T07:10:28.213Z,18.82
2022-09-11T07:12:59.510Z,18.77
2022-09-11T07:15:27.290Z,18.64
2022-09-11T07:17:56.430Z,18.82
2022-09-11T07:20:25.545Z,18.74
2022-09-11T07:22:53.725Z,18.58
2022-09-11T07:25:22.215Z,18.75
2022-09-11T07:27:51.873Z,18.43
2022-09-11T07:30:20.746Z,18.55
2022-09-11T07:32:52.245Z,18.71
2022-09-11T07:35:22.176Z,18.87
2022-09-11T07:37:53.013Z,18.93
2022-09-11T07:40:25.462Z,18.76
2022-09-11T07:42:53.224Z,18.78
2022-09-11T07:45:22.869Z,18.86
2022-09-11T07:47:51.158Z,19.20
2022-09-11T07:50:19.261Z,19.39
2022-09-11T07:52:48.427Z,19.43
2022-09-11T07:55:16.526Z,19.51
2022-09-11T07:57:45.480Z,19.56
2022-09-11T08:00:16.477Z,19.89
2022-09-11T08:02:56.583Z,19.39
2022-09-11T08:05:31.222Z,19.39
2022-09-11T08:08:00.873Z,19.13
2022-09-11T08:10:30.387Z,18.92
2022-09-11T08:13:00.240Z,18.90
2022-09-11T08:15:33.139Z,18.93
2022-09-11T08:18:03.037Z,18.81
2022-09-11T08:20:32.092Z,18.85
2022-09-11T08:23:01.587Z,18.78
2022-09-11T08:25:29.754Z,18.83
2022-09-11T08:27:59.618Z,18.82
2022-09-11T08:30:27.834Z,18.69
2022-09-11T08:32:55.924Z,18.61
2022-09-11T08:35:23.701Z,18.82
2022-09-11T08:37:54.849Z,18.72
2022-09-11T08:40:24.382Z,18.79
2022-09-11T08:42:53.276Z,18.86
2022-09-11T08:45:22.293Z,18.95
2022-09-11T08:47:53.095Z,19.27
2022-09-11T08:50:24.305Z,19.39
2022-09-11T08:52:54.154Z,19.43
2022-09-11T08:55:29.999Z,19.29
2022-09-11T08:58:03.389Z,19.02
2022-09-11T09:00:34.585Z,19.07
2022-09-11T09:03:22.200Z,18.80
2022-09-11T09:05:55.747Z,19.25
2022-09-11T09:08:44.057Z,19.17
2022-09-11T09:11:21.866Z,19.15
2022-09-11T09:14:02.717Z,19.33
2022-09-11T09:16:40.169Z,19.34
2022-09-11T09:19:14.143Z,19.23
2022-09-11T09:21:45.243Z,19.27
2022-09-11T09:24:19.294Z,19.61
2022-09-11T09:26:53.664Z,19.71
2022-09-11T09:29:23.830Z,20.13
2022-09-11T09:31:53.296Z,19.76
2022-09-11T09:34:23.835Z,19.70
2022-09-11T09:36:57.975Z,19.47
2022-09-11T09:39:26.272Z,19.72
2022-09-11T09:42:28.241Z,19.51
2022-09-11T09:45:09.388Z,19.75
2022-09-11T09:47:41.177Z,19.85
2022-09-11T09:50:19.629Z,19.52
2022-09-11T09:52:48.810Z,19.58
2022-09-11T09:55:18.490Z,19.53
2022-09-11T09:57:48.191Z,19.67
2022-09-11T10:00:19.783Z,20.24
2022-09-11T10:02:53.602Z,20.12
2022-09-11T10:05:26.363Z,19.81
2022-09-11T10:07:56.763Z,20.45
2022-09-11T10:10:29.919Z,20.60
2022-09-11T10:13:18.080Z,20.74
2022-09-11T10:15:49.676Z,20.86
2022-09-11T10:18:40.067Z,20.95
2022-09-11T10:21:26.168Z,20.44
2022-09-11T10:23:55.697Z,20.31
2022-09-11T10:26:27.806Z,20.91
2022-09-11T10:29:00.906Z,21.58
2022-09-11T10:31:30.153Z,21.70
2022-09-11T10:33:59.468Z,22.09
2022-09-11T10:36:28.604Z,21.77
2022-09-11T10:38:57.345Z,21.89
2022-09-11T10:41:26.168Z,22.34
2022-09-11T10:43:58.811Z,22.50
2022-09-11T10:46:41.109Z,22.15
2022-09-11T10:49:17.342Z,21.42
2022-09-11T10:51:59.462Z,21.86
2022-09-11T10:54:35.865Z,21.78
2022-09-11T10:57:09.020Z,22.16
2022-09-11T10:59:46.034Z,22.51
2022-09-11T11:02:22.110Z,22.71
2022-09-11T11:04:50.040Z,22.46
2022-09-11T11:07:36.265Z,22.66
2022-09-11T11:10:14.309Z,22.43
2022-09-11T11:12:51.661Z,22.34
2022-09-11T11:15:32.111Z,22.37
2022-09-11T11:18:20.109Z,22.03
2022-09-11T11:20:55.366Z,22.12
2022-09-11T11:23:33.304Z,22.23
2022-09-11T11:26:11.735Z,21.94
2022-09-11T11:28:55.254Z,22.39
2022-09-11T11:31:34.222Z,22.20
2022-09-11T11:34:12.430Z,21.92
2022-09-11T11:36:42.573Z,21.57
2022-09-11T11:39:19.966Z,22.88
2022-09-11T11:41:51.536Z,23.21
2022-09-11T11:44:26.828Z,22.87
2022-09-11T11:46:58.278Z,23.00
2022-09-11T11:49:41.545Z,22.90
2022-09-11T11:52:20.589Z,22.62
2022-09-11T11:54:53.206Z,22.73
2022-09-11T11:57:23.257Z,22.58
2022-09-11T11:59:57.111Z,22.65
2022-09-11T12:02:31.054Z,22.34
2022-09-11T12:05:02.068Z,22.18
2022-09-11T12:07:31.162Z,21.79
2022-09-11T12:09:59.786Z,21.88
2022-09-11T12:12:30.352Z,21.94
2022-09-11T12:15:03.534Z,22.17
2022-09-11T12:17:34.322Z,22.16
2022-09-11T12:20:25.961Z,22.12
2022-09-11T12:22:53.685Z,22.11
2022-09-11T12:25:53.631Z,22.36
2022-09-11T12:28:23.406Z,22.23
2022-09-11T12:31:01.359Z,21.77
2022-09-11T12:33:54.500Z,21.60
2022-09-11T12:36:33.819Z,21.84
2022-09-11T12:39:04.442Z,21.92
2022-09-11T12:41:34.320Z,22.17
2022-09-11T12:44:02.728Z,22.70
2022-09-11T12:47:16.582Z,22.45
2022-09-11T12:49:54.231Z,22.91
2022-09-11T12:52:29.036Z,23.24
2022-09-11T12:54:56.789Z,23.96
2022-09-11T12:57:29.337Z,24.87
2022-09-11T13:00:00.046Z,24.80
2022-09-11T13:02:35.451Z,25.93
2022-09-11T13:05:05.554Z,25.13
2022-09-11T13:07:41.457Z,25.40
2022-09-11T13:10:30.451Z,25.98
2022-09-11T13:13:00.353Z,27.87
2022-09-11T13:15:41.154Z,26.14
2022-09-11T13:18:25.043Z,26.50
2022-09-11T13:21:02.052Z,28.12
2022-09-11T13:23:29.873Z,28.33
2022-09-11T13:25:58.103Z,27.90
2022-09-11T13:28:27.591Z,28.26
2022-09-11T13:31:00.468Z,28.21
2022-09-11T13:33:29.817Z,27.51
2022-09-11T13:36:02.564Z,28.16
2022-09-11T13:38:32.391Z,28.30
2022-09-11T13:41:04.005Z,27.98
2022-09-11T13:43:35.745Z,27.92
2022-09-11T13:46:21.104Z,27.63
2022-09-11T13:48:50.786Z,29.15
2022-09-11T13:51:21.951Z,30.41
2022-09-11T13:53:57.644Z,28.57
2022-09-11T13:56:47.410Z,29.03
2022-09-11T13:59:45.489Z,29.51
2022-09-11T14:02:49.482Z,29.37
2022-09-11T14:05:21.135Z,29.33
2022-09-11T14:08:04.010Z,29.55
2022-09-11T14:10:33.161Z,29.63
2022-09-11T14:13:05.610Z,31.53
2022-09-11T14:15:39.926Z,29.75
2022-09-11T14:18:17.108Z,31.23
2022-09-11T14:20:46.114Z,30.48
2022-09-11T14:23:20.093Z,30.18
2022-09-11T14:26:07.668Z,29.73
2022-09-11T14:28:37.947Z,29.77
2022-09-11T14:31:07.588Z,30.07
2022-09-11T14:33:35.653Z,29.65
2022-09-11T14:36:07.849Z,29.82
2022-09-11T14:38:38.775Z,30.24
2022-09-11T14:41:07.601Z,30.62
2022-09-11T14:43:36.545Z,30.43
2022-09-11T14:46:04.765Z,29.74
2022-09-11T14:48:34.796Z,29.24
2022-09-11T14:51:09.923Z,27.23
2022-09-11T14:53:43.388Z,26.71
2022-09-11T14:56:11.440Z,25.56
2022-09-11T14:58:39.214Z,25.84
2022-09-11T15:01:07.256Z,26.05
2022-09-11T15:03:35.134Z,26.70
2022-09-11T15:06:02.935Z,26.53
2022-09-11T15:08:30.666Z,25.74
2022-09-11T15:10:59.750Z,25.91
2022-09-11T15:13:27.686Z,25.31
2022-09-11T15:15:56.062Z,25.27
2022-09-11T15:18:23.880Z,24.56
2022-09-11T15:20:51.648Z,24.01
2022-09-11T15:23:19.362Z,24.26
2022-09-11T15:25:47.305Z,24.71
2022-09-11T15:28:16.457Z,24.99
2022-09-11T15:30:44.673Z,24.84
2022-09-11T15:33:12.472Z,24.27
2022-09-11T15:35:40.740Z,23.67
2022-09-11T15:38:09.848Z,23.47
2022-09-11T15:40:37.649Z,23.90
2022-09-11T15:43:05.397Z,23.97
2022-09-11T15:45:34.538Z,23.42
2022-09-11T15:48:02.870Z,23.64
2022-09-11T15:50:30.602Z,23.80
2022-09-11T15:52:58.668Z,24.08
2022-09-11T15:55:27.252Z,24.12
2022-09-11T15:57:54.957Z,23.78
2022-09-11T16:00:22.702Z,23.88
2022-09-11T16:02:53.507Z,23.53
2022-09-11T16:05:23.059Z,23.67
2022-09-11T16:07:50.776Z,23.58
2022-09-11T16:10:19.705Z,23.53
2022-09-11T16:12:47.918Z,23.45
2022-09-11T16:15:15.805Z,23.25
2022-09-11T16:17:43.706Z,23.31
2022-09-11T16:20:15.228Z,23.14
2022-09-11T16:22:42.994Z,23.30
2022-09-11T16:25:10.856Z,23.46
2022-09-11T16:27:38.717Z,23.32
2022-09-11T16:32:55.311Z,23.32
2022-09-11T16:35:26.082Z,23.03
2022-09-11T16:37:54.558Z,23.08
2022-09-11T16:40:22.242Z,22.94
2022-09-11T16:42:49.916Z,23.01
2022-09-11T16:45:17.739Z,22.85
2022-09-11T16:47:45.418Z,22.86
2022-09-11T16:50:13.416Z,22.74
2022-09-11T16:52:42.398Z,22.66
2022-09-11T16:55:10.759Z,22.76
2022-09-11T16:57:38.769Z,22.80
2022-09-11T17:00:07.986Z,23.09
2022-09-11T17:02:36.841Z,23.13
2022-09-11T17:05:05.116Z,23.47
2022-09-11T17:07:32.894Z,23.39
2022-09-11T17:10:02.070Z,23.02
2022-09-11T17:12:29.793Z,23.07
2022-09-11T17:14:57.536Z,23.70
2022-09-11T17:17:25.310Z,24.04
2022-09-11T17:19:53.694Z,24.00
2022-09-11T17:22:21.419Z,24.11
2022-09-11T17:24:49.145Z,23.66
2022-09-11T17:27:18.269Z,23.24
2022-09-11T17:29:47.293Z,22.70
2022-09-11T17:32:31.170Z,22.49
2022-09-11T17:34:59.719Z,21.92
2022-09-11T17:37:27.800Z,21.62
2022-09-11T17:39:55.854Z,21.45
2022-09-11T17:42:25.366Z,21.31
2022-09-11T17:44:53.374Z,21.27
2022-09-11T17:47:21.189Z,20.92
2022-09-11T17:49:50.115Z,20.89
2022-09-11T17:52:19.031Z,21.04
2022-09-11T17:54:46.964Z,20.85
2022-09-11T17:57:15.533Z,20.70
2022-09-11T17:59:44.678Z,20.41
2022-09-11T18:02:13.817Z,20.12
2022-09-11T18:04:41.554Z,20.18
2022-09-11T18:07:09.174Z,20.23
2022-09-11T18:09:37.126Z,20.30
2022-09-11T18:12:05.126Z,20.21
2022-09-11T18:14:32.938Z,20.16
2022-09-11T18:17:02.094Z,20.16
2022-09-11T18:19:30.198Z,20.04
2022-09-11T18:21:59.056Z,19.93
2022-09-11T18:24:29.962Z,19.77
2022-09-11T18:27:00.863Z,19.50
2022-09-11T18:29:30.307Z,19.39
2022-09-11T18:31:59.905Z,19.45
2022-09-11T18:34:31.073Z,19.48
2022-09-11T18:36:59.926Z,19.29
2022-09-11T18:39:27.925Z,19.33
2022-09-11T18:41:56.121Z,19.48
2022-09-11T18:44:25.104Z,19.10
2022-09-11T18:46:53.978Z,18.91
2022-09-11T18:49:22.363Z,18.77
2022-09-11T18:51:51.861Z,18.71
2022-09-11T18:54:21.204Z,18.56
2022-09-11T18:56:50.139Z,18.50
2022-09-11T18:59:17.978Z,18.31
2022-09-11T19:01:45.842Z,18.47
2022-09-11T19:04:14.169Z,18.62
2022-09-11T19:06:41.970Z,18.76
2022-09-11T19:09:12.647Z,18.54
2022-09-11T19:11:41.134Z,18.33
2022-09-11T19:14:10.462Z,18.22
2022-09-11T19:16:39.373Z,18.33
2022-09-11T19:19:08.038Z,18.25
2022-09-11T19:21:36.990Z,18.37
2022-09-11T19:24:05.158Z,18.40
2022-09-11T19:26:37.395Z,18.21
2022-09-11T19:29:05.638Z,18.00
2022-09-11T19:31:34.042Z,17.95
2022-09-11T19:34:02.548Z,17.90
2022-09-11T19:36:31.848Z,17.80
2022-09-11T19:39:00.822Z,17.92
2022-09-11T19:41:30.665Z,18.12
2022-09-11T19:44:01.502Z,18.06
2022-09-11T19:46:31.355Z,17.78
2022-09-11T19:49:00.943Z,17.77
2022-09-11T19:51:30.501Z,17.58
2022-09-11T19:54:00.425Z,17.81
2022-09-11T19:56:29.240Z,17.82
2022-09-11T19:58:57.027Z,17.85
2022-09-11T20:01:27.371Z,17.69
2022-09-11T20:03:56.381Z,17.52
2022-09-11T20:06:26.201Z,17.38
2022-09-11T20:09:13.339Z,17.46
2022-09-11T20:11:42.872Z,17.51
2022-09-11T20:14:10.854Z,17.42
2022-09-11T20:16:39.982Z,17.27
2022-09-11T20:19:09.287Z,17.28
2022-09-11T20:21:37.128Z,17.20
2022-09-11T20:24:06.217Z,17.16
2022-09-11T20:26:34.205Z,17.06
2022-09-11T20:29:03.895Z,17.03
2022-09-11T20:31:36.232Z,17.02
2022-09-11T20:34:08.408Z,16.93
2022-09-11T20:36:36.910Z,16.97
2022-09-11T20:39:05.059Z,16.98
2022-09-11T20:41:33.293Z,17.11
2022-09-11T20:44:04.545Z,17.27
2022-09-11T20:46:32.381Z,17.27
2022-09-11T20:49:00.808Z,16.93
2022-09-11T20:51:30.067Z,16.95
2022-09-11T20:53:57.843Z,17.12
2022-09-11T20:56:25.606Z,16.89
2022-09-11T20:58:53.623Z,16.83
2022-09-11T21:01:23.044Z,16.93
2022-09-11T21:03:52.049Z,16.99
2022-09-11T21:06:25.384Z,17.13
2022-09-11T21:08:56.777Z,16.86
2022-09-11T21:11:24.749Z,16.73
2022-09-11T21:13:52.584Z,16.78
2022-09-11T21:16:20.582Z,16.65
2022-09-11T21:18:50.145Z,16.68
2022-09-11T21:21:18.696Z,16.73
2022-09-11T21:23:46.631Z,16.82
2022-09-11T21:26:17.264Z,16.78
2022-09-11T21:28:45.050Z,16.59
2022-09-11T21:31:13.122Z,16.55
2022-09-11T21:33:41.138Z,16.49
2022-09-11T21:36:09.085Z,16.67
2022-09-11T21:38:37.640Z,16.78
2022-09-11T21:41:07.965Z,16.69
2022-09-11T21:43:37.554Z,16.69
2022-09-11T21:46:07.224Z,16.72
2022-09-11T21:48:36.069Z,16.74
2022-09-11T21:51:07.888Z,16.67
2022-09-11T21:53:35.647Z,16.60
2022-09-11T21:56:03.878Z,16.76
2022-09-11T21:58:31.806Z,16.81
2022-09-11T22:01:06.037Z,16.86
2022-09-11T22:03:34.394Z,16.71
2022-09-11T22:06:06.490Z,16.65
2022-09-11T22:08:35.235Z,16.61
2022-09-11T22:11:04.140Z,16.57
2022-09-11T22:13:32.413Z,16.64
2022-09-11T22:16:00.704Z,16.57
2022-09-11T22:18:29.946Z,16.53
2022-09-11T22:21:01.127Z,16.38
2022-09-11T22:23:29.754Z,16.28
2022-09-11T22:26:01.042Z,16.16
2022-09-11T22:28:29.138Z,16.08
2022-09-11T22:30:57.038Z,16.01
2022-09-11T22:33:25.365Z,16.02
2022-09-11T22:35:54.452Z,16.02
2022-09-11T22:38:22.179Z,15.94
2022-09-11T22:40:53.895Z,15.96
2022-09-11T22:43:21.666Z,16.01
2022-09-11T22:45:52.800Z,15.97
2022-09-11T22:48:20.597Z,15.94
2022-09-11T22:50:48.661Z,16.02
2022-09-11T22:53:17.928Z,16.09
2022-09-11T22:55:45.837Z,16.13
2022-09-11T22:58:14.056Z,16.06
2022-09-11T23:00:42.675Z,16.27
2022-09-11T23:03:10.541Z,16.08
2022-09-11T23:05:55.674Z,15.93
2022-09-11T23:08:28.312Z,15.85
2022-09-11T23:10:59.313Z,15.94
2022-09-11T23:13:27.252Z,15.80
2022-09-11T23:15:57.394Z,15.73
2022-09-11T23:18:25.678Z,15.85
2022-09-11T23:20:54.649Z,16.09
2022-09-11T23:23:23.765Z,16.09
2022-09-11T23:25:52.108Z,15.68
2022-09-11T23:28:20.010Z,15.86
2022-09-11T23:30:47.769Z,15.73
2022-09-11T23:33:15.611Z,15.84
2022-09-11T23:35:43.317Z,15.98
2022-09-11T23:38:11.353Z,15.90
2022-09-11T23:40:40.449Z,15.90
2022-09-11T23:43:08.157Z,15.89
2022-09-11T23:45:35.977Z,15.93
2022-09-11T23:48:04.438Z,15.79
2022-09-11T23:50:32.670Z,15.58
2022-09-11T23:53:00.446Z,15.65
2022-09-11T23:55:28.159Z,15.75
2022-09-11T23:57:57.358Z,15.61
